sensor_id;sensor_type;location;lat;lon;timestamp;pressure;altitude;pressure_sealevel;temperature;humidity
25722;BME280;13578;53.450;15.496;2023-04-04T00:02:16;101157.31;;;-2.17;100.00
25722;BME280;13578;53.450;15.496;2023-04-04T00:05:17;101153.72;;;-2.16;100.00
25722;BME280;13578;53.450;15.496;2023-04-04T00:08:18;101148.25;;;-2.13;100.00
25722;BME280;13578;53.450;15.496;2023-04-04T00:11:18;101144.66;;;-2.12;100.00
25722;BME280;13578;53.450;15.496;2023-04-04T00:14:22;101142.81;;;-2.06;100.00
25722;BME280;13578;53.450;15.496;2023-04-04T00:17:23;101142.81;;;-2.06;100.00
25722;BME280;13578;53.450;15.496;2023-04-04T00:20:24;101142.84;;;-2.10;100.00
25722;BME280;13578;53.450;15.496;2023-04-04T00:23:24;101131.22;;;-2.12;100.00
25722;BME280;13578;53.450;15.496;2023-04-04T00:26:25;101132.09;;;-2.10;100.00
25722;BME280;13578;53.450;15.496;2023-04-04T00:29:25;101128.53;;;-2.10;100.00
25722;BME280;13578;53.450;15.496;2023-04-04T00:32:26;101128.53;;;-2.12;100.00
25722;BME280;13578;53.450;15.496;2023-04-04T00:35:27;101133.75;;;-2.02;100.00
25722;BME280;13578;53.450;15.496;2023-04-04T00:38:28;101131.78;;;-1.91;100.00
25722;BME280;13578;53.450;15.496;2023-04-04T00:41:28;101130.13;;;-1.98;100.00
25722;BME280;13578;53.450;15.496;2023-04-04T00:44:31;101123.81;;;-1.97;100.00
25722;BME280;13578;53.450;15.496;2023-04-04T00:47:32;101122.19;;;-2.09;100.00
25722;BME280;13578;53.450;15.496;2023-04-04T00:50:33;101122.16;;;-2.06;100.00
25722;BME280;13578;53.450;15.496;2023-04-04T00:53:33;101118.56;;;-2.05;100.00
25722;BME280;13578;53.450;15.496;2023-04-04T00:56:36;101123.25;;;-2.18;100.00
25722;BME280;13578;53.450;15.496;2023-04-04T00:59:39;101120.63;;;-2.22;100.00
25722;BME280;13578;53.450;15.496;2023-04-04T01:02:40;101124.25;;;-2.25;100.00
25722;BME280;13578;53.450;15.496;2023-04-04T01:05:40;101120.56;;;-2.18;100.00
25722;BME280;13578;53.450;15.496;2023-04-04T01:08:42;101115.06;;;-2.12;100.00
25722;BME280;13578;53.450;15.496;2023-04-04T01:11:43;101109.66;;;-2.09;100.00
25722;BME280;13578;53.450;15.496;2023-04-04T01:14:44;101114.97;;;-2.04;100.00
25722;BME280;13578;53.450;15.496;2023-04-04T01:17:45;101116.66;;;-2.00;100.00
25722;BME280;13578;53.450;15.496;2023-04-04T01:21:09;101115.16;;;-2.16;100.00
25722;BME280;13578;53.450;15.496;2023-04-04T01:24:11;101112.59;;;-2.24;100.00
25722;BME280;13578;53.450;15.496;2023-04-04T01:27:15;101104.56;;;-2.26;100.00
25722;BME280;13578;53.450;15.496;2023-04-04T01:30:17;101088.53;;;-2.32;100.00
25722;BME280;13578;53.450;15.496;2023-04-04T01:33:24;101095.78;;;-2.38;100.00
25722;BME280;13578;53.450;15.496;2023-04-04T01:36:31;101080.63;;;-2.43;100.00
25722;BME280;13578;53.450;15.496;2023-04-04T01:39:40;101074.31;;;-2.42;100.00
25722;BME280;13578;53.450;15.496;2023-04-04T01:42:44;101070.81;;;-2.47;100.00
25722;BME280;13578;53.450;15.496;2023-04-04T01:45:45;101082.47;;;-2.48;100.00
25722;BME280;13578;53.450;15.496;2023-04-04T01:48:46;101066.25;;;-2.40;100.00
25722;BME280;13578;53.450;15.496;2023-04-04T01:51:47;101072.50;;;-2.40;100.00
25722;BME280;13578;53.450;15.496;2023-04-04T01:54:48;101070.75;;;-2.42;100.00
25722;BME280;13578;53.450;15.496;2023-04-04T01:57:50;101067.09;;;-2.36;100.00
25722;BME280;13578;53.450;15.496;2023-04-04T02:00:50;101063.47;;;-2.35;100.00
25722;BME280;13578;53.450;15.496;2023-04-04T02:03:51;101063.47;;;-2.37;100.00
25722;BME280;13578;53.450;15.496;2023-04-04T02:06:52;101060.94;;;-2.45;100.00
25722;BME280;13578;53.450;15.496;2023-04-04T02:09:52;101060.97;;;-2.48;100.00
25722;BME280;13578;53.450;15.496;2023-04-04T02:12:53;101058.28;;;-2.46;100.00
25722;BME280;13578;53.450;15.496;2023-04-04T02:15:54;101060.94;;;-2.45;100.00
25722;BME280;13578;53.450;15.496;2023-04-04T02:18:54;101054.66;;;-2.44;100.00
25722;BME280;13578;53.450;15.496;2023-04-04T02:21:55;101057.34;;;-2.44;100.00
25722;BME280;13578;53.450;15.496;2023-04-04T02:24:55;101046.44;;;-2.36;100.00
25722;BME280;13578;53.450;15.496;2023-04-04T02:27:57;101051.75;;;-2.31;100.00
25722;BME280;13578;53.450;15.496;2023-04-04T02:31:01;101047.38;;;-2.38;100.00
25722;BME280;13578;53.450;15.496;2023-04-04T02:34:01;101050.19;;;-2.45;100.00
25722;BME280;13578;53.450;15.496;2023-04-04T02:37:02;101044.81;;;-2.45;100.00
25722;BME280;13578;53.450;15.496;2023-04-04T02:40:03;101040.38;;;-2.49;100.00
25722;BME280;13578;53.450;15.496;2023-04-04T02:43:04;101043.03;;;-2.46;100.00
25722;BME280;13578;53.450;15.496;2023-04-04T02:46:05;101042.03;;;-2.42;100.00
25722;BME280;13578;53.450;15.496;2023-04-04T02:49:06;101041.97;;;-2.35;100.00
25722;BME280;13578;53.450;15.496;2023-04-04T02:52:06;101048.38;;;-2.44;100.00
25722;BME280;13578;53.450;15.496;2023-04-04T02:55:07;101043.91;;;-2.44;100.00
25722;BME280;13578;53.450;15.496;2023-04-04T02:58:08;101033.97;;;-2.42;100.00
25722;BME280;13578;53.450;15.496;2023-04-04T03:01:09;101036.78;;;-2.48;100.00
25722;BME280;13578;53.450;15.496;2023-04-04T03:04:10;101030.81;;;-2.65;100.00
25722;BME280;13578;53.450;15.496;2023-04-04T03:07:11;101022.88;;;-2.75;100.00
25722;BME280;13578;53.450;15.496;2023-04-04T03:10:12;101024.81;;;-2.86;100.00
25722;BME280;13578;53.450;15.496;2023-04-04T03:13:12;101023.91;;;-2.85;100.00
25722;BME280;13578;53.450;15.496;2023-04-04T03:16:13;101021.25;;;-2.87;100.00
25722;BME280;13578;53.450;15.496;2023-04-04T03:19:15;101016.72;;;-2.83;100.00
25722;BME280;13578;53.450;15.496;2023-04-04T03:22:16;101017.66;;;-2.85;100.00
25722;BME280;13578;53.450;15.496;2023-04-04T03:25:17;101007.84;;;-2.88;100.00
25722;BME280;13578;53.450;15.496;2023-04-04T03:28:18;101006.13;;;-2.94;100.00
25722;BME280;13578;53.450;15.496;2023-04-04T03:31:19;101003.47;;;-2.95;100.00
25722;BME280;13578;53.450;15.496;2023-04-04T03:34:19;101006.28;;;-3.01;100.00
25722;BME280;13578;53.450;15.496;2023-04-04T03:37:20;100998.34;;;-3.11;100.00
25722;BME280;13578;53.450;15.496;2023-04-04T03:40:22;100992.22;;;-3.21;100.00
25722;BME280;13578;53.450;15.496;2023-04-04T03:43:22;100992.38;;;-3.31;100.00
25722;BME280;13578;53.450;15.496;2023-04-04T03:46:23;100987.00;;;-3.31;100.00
25722;BME280;13578;53.450;15.496;2023-04-04T03:49:24;100977.00;;;-3.22;100.00
25722;BME280;13578;53.450;15.496;2023-04-04T03:52:25;100973.38;;;-3.19;100.00
25722;BME280;13578;53.450;15.496;2023-04-04T03:55:26;100967.09;;;-3.18;100.00
25722;BME280;13578;53.450;15.496;2023-04-04T03:58:27;100967.00;;;-3.12;100.00
25722;BME280;13578;53.450;15.496;2023-04-04T04:01:28;100967.84;;;-3.08;100.00
25722;BME280;13578;53.450;15.496;2023-04-04T04:04:28;100970.47;;;-3.04;100.00
25722;BME280;13578;53.450;15.496;2023-04-04T04:07:29;100975.00;;;-3.07;100.00
25722;BME280;13578;53.450;15.496;2023-04-04T04:10:31;100969.78;;;-3.18;100.00
25722;BME280;13578;53.450;15.496;2023-04-04T04:13:33;100977.75;;;-3.12;100.00
25722;BME280;13578;53.450;15.496;2023-04-04T04:16:38;100962.50;;;-3.11;100.00
25722;BME280;13578;53.450;15.496;2023-04-04T04:19:39;100958.88;;;-3.07;100.00
25722;BME280;13578;53.450;15.496;2023-04-04T04:22:47;100951.69;;;-3.05;100.00
25722;BME280;13578;53.450;15.496;2023-04-04T04:25:47;100959.75;;;-3.07;100.00
25722;BME280;13578;53.450;15.496;2023-04-04T04:28:48;100958.78;;;-3.01;100.00
25722;BME280;13578;53.450;15.496;2023-04-04T04:31:49;100949.81;;;-3.00;100.00
25722;BME280;13578;53.450;15.496;2023-04-04T04:34:51;100956.94;;;-2.97;100.00
25722;BME280;13578;53.450;15.496;2023-04-04T04:37:52;100956.06;;;-2.99;100.00
25722;BME280;13578;53.450;15.496;2023-04-04T04:40:55;100956.81;;;-2.88;100.00
25722;BME280;13578;53.450;15.496;2023-04-04T04:43:56;100951.25;;;-2.79;100.00
25722;BME280;13578;53.450;15.496;2023-04-04T04:46:56;100956.59;;;-2.76;100.00
25722;BME280;13578;53.450;15.496;2023-04-04T04:49:57;100955.53;;;-2.65;100.00
25722;BME280;13578;53.450;15.496;2023-04-04T04:52:57;100958.97;;;-2.57;100.00
25722;BME280;13578;53.450;15.496;2023-04-04T04:55:58;100957.00;;;-2.47;100.00
25722;BME280;13578;53.450;15.496;2023-04-04T04:58:59;100951.38;;;-2.33;100.00
25722;BME280;13578;53.450;15.496;2023-04-04T05:01:59;100954.00;;;-2.30;100.00
25722;BME280;13578;53.450;15.496;2023-04-04T05:05:00;100954.59;;;-2.14;100.00
25722;BME280;13578;53.450;15.496;2023-04-04T05:08:02;100950.22;;;-2.18;100.00
25722;BME280;13578;53.450;15.496;2023-04-04T05:11:02;100955.44;;;-2.11;100.00
25722;BME280;13578;53.450;15.496;2023-04-04T05:14:04;100952.69;;;-2.08;100.00
25722;BME280;13578;53.450;15.496;2023-04-04T05:17:05;100964.97;;;-1.94;100.00
25722;BME280;13578;53.450;15.496;2023-04-04T05:20:06;100956.97;;;-1.96;100.00
25722;BME280;13578;53.450;15.496;2023-04-04T05:23:07;100963.94;;;-1.87;100.00
25722;BME280;13578;53.450;15.496;2023-04-04T05:26:08;100967.34;;;-1.77;100.00
25722;BME280;13578;53.450;15.496;2023-04-04T05:29:09;100969.03;;;-1.71;100.00
25722;BME280;13578;53.450;15.496;2023-04-04T05:32:09;100976.22;;;-1.73;100.00
25722;BME280;13578;53.450;15.496;2023-04-04T05:35:10;100971.53;;;-1.62;100.00
25722;BME280;13578;53.450;15.496;2023-04-04T05:38:10;100976.69;;;-1.53;100.00
25722;BME280;13578;53.450;15.496;2023-04-04T05:41:11;100974.72;;;-1.45;100.00
25722;BME280;13578;53.450;15.496;2023-04-04T05:44:12;100975.50;;;-1.38;100.00
25722;BME280;13578;53.450;15.496;2023-04-04T05:47:13;100980.56;;;-1.22;100.00
25722;BME280;13578;53.450;15.496;2023-04-04T05:50:13;100986.75;;;-1.19;100.00
25722;BME280;13578;53.450;15.496;2023-04-04T05:53:14;100982.81;;;-1.04;100.00
25722;BME280;13578;53.450;15.496;2023-04-04T05:56:16;100980.22;;;-1.08;100.00
25722;BME280;13578;53.450;15.496;2023-04-04T05:59:17;100976.41;;;-0.98;100.00
25722;BME280;13578;53.450;15.496;2023-04-04T06:02:19;100983.38;;;-0.89;100.00
25722;BME280;13578;53.450;15.496;2023-04-04T06:05:19;100988.44;;;-0.75;100.00
25722;BME280;13578;53.450;15.496;2023-04-04T06:08:20;100986.47;;;-0.69;100.00
25722;BME280;13578;53.450;15.496;2023-04-04T06:11:21;100987.06;;;-0.56;100.00
25722;BME280;13578;53.450;15.496;2023-04-04T06:14:22;100993.19;;;-0.49;100.00
25722;BME280;13578;53.450;15.496;2023-04-04T06:17:23;100992.19;;;-0.45;100.00
25722;BME280;13578;53.450;15.496;2023-04-04T06:20:24;100997.34;;;-0.36;100.00
25722;BME280;13578;53.450;15.496;2023-04-04T06:23:24;100985.53;;;-0.32;100.00
25722;BME280;13578;53.450;15.496;2023-04-04T06:26:25;100990.78;;;-0.25;100.00
25722;BME280;13578;53.450;15.496;2023-04-04T06:29:26;100988.75;;;-0.15;100.00
25722;BME280;13578;53.450;15.496;2023-04-04T06:32:27;100994.38;;;-0.25;100.00
25722;BME280;13578;53.450;15.496;2023-04-04T06:35:27;100991.03;;;0.00;100.00
25722;BME280;13578;53.450;15.496;2023-04-04T06:38:28;100981.97;;;0.01;100.00
25722;BME280;13578;53.450;15.496;2023-04-04T06:41:29;100997.81;;;0.15;100.00
25722;BME280;13578;53.450;15.496;2023-04-04T06:44:30;100993.13;;;0.22;100.00
25722;BME280;13578;53.450;15.496;2023-04-04T06:47:31;100996.59;;;0.27;100.00
25722;BME280;13578;53.450;15.496;2023-04-04T06:50:31;100989.81;;;0.43;100.00
25722;BME280;13578;53.450;15.496;2023-04-04T06:53:33;100991.53;;;0.46;100.00
25722;BME280;13578;53.450;15.496;2023-04-04T06:56:33;100982.94;;;0.63;100.00
25722;BME280;13578;53.450;15.496;2023-04-04T06:59:34;100974.16;;;0.85;100.00
25722;BME280;13578;53.450;15.496;2023-04-04T07:02:35;100993.34;;;1.05;100.00
25722;BME280;13578;53.450;15.496;2023-04-04T07:05:36;100980.09;;;0.98;100.00
25722;BME280;13578;53.450;15.496;2023-04-04T07:08:39;100978.38;;;0.95;100.00
25722;BME280;13578;53.450;15.496;2023-04-04T07:11:40;100973.41;;;1.09;100.00
25722;BME280;13578;53.450;15.496;2023-04-04T07:14:40;100970.88;;;1.03;100.00
25722;BME280;13578;53.450;15.496;2023-04-04T07:17:42;100977.81;;;1.12;100.00
25722;BME280;13578;53.450;15.496;2023-04-04T07:20:45;100983.91;;;1.19;100.00
25722;BME280;13578;53.450;15.496;2023-04-04T07:23:46;100971.72;;;1.34;100.00
25722;BME280;13578;53.450;15.496;2023-04-04T07:26:47;100961.97;;;1.28;100.00
25722;BME280;13578;53.450;15.496;2023-04-04T07:29:48;100952.47;;;1.70;100.00
25722;BME280;13578;53.450;15.496;2023-04-04T07:32:55;100948.31;;;1.85;100.00
25722;BME280;13578;53.450;15.496;2023-04-04T07:35:57;100948.38;;;1.83;100.00
25722;BME280;13578;53.450;15.496;2023-04-04T07:39:00;100937.38;;;1.63;100.00
25722;BME280;13578;53.450;15.496;2023-04-04T07:42:00;100938.09;;;1.68;100.00
25722;BME280;13578;53.450;15.496;2023-04-04T07:45:01;100926.94;;;1.77;100.00
25722;BME280;13578;53.450;15.496;2023-04-04T07:48:01;100916.09;;;1.52;100.00
25722;BME280;13578;53.450;15.496;2023-04-04T07:51:03;100921.19;;;1.61;100.00
25722;BME280;13578;53.450;15.496;2023-04-04T07:54:04;100906.50;;;1.68;100.00
25722;BME280;13578;53.450;15.496;2023-04-04T07:57:05;100889.09;;;1.50;100.00
25722;BME280;13578;53.450;15.496;2023-04-04T08:00:08;100893.56;;;1.24;100.00
25722;BME280;13578;53.450;15.496;2023-04-04T08:03:09;100914.22;;;1.54;100.00
25722;BME280;13578;53.450;15.496;2023-04-04T08:06:10;100891.91;;;1.72;100.00
25722;BME280;13578;53.450;15.496;2023-04-04T08:09:10;100876.66;;;1.95;100.00
25722;BME280;13578;53.450;15.496;2023-04-04T08:12:11;100881.56;;;2.33;100.00
25722;BME280;13578;53.450;15.496;2023-04-04T08:15:11;100871.22;;;2.43;100.00
25722;BME280;13578;53.450;15.496;2023-04-04T08:18:12;100856.06;;;2.38;100.00
25722;BME280;13578;53.450;15.496;2023-04-04T08:21:13;100846.97;;;2.40;100.00
25722;BME280;13578;53.450;15.496;2023-04-04T08:24:15;100831.28;;;2.02;100.00
25722;BME280;13578;53.450;15.496;2023-04-04T08:27:16;100830.78;;;1.90;100.00
25722;BME280;13578;53.450;15.496;2023-04-04T08:30:17;100820.13;;;1.86;100.00
25722;BME280;13578;53.450;15.496;2023-04-04T08:33:18;100817.16;;;1.94;98.79
25722;BME280;13578;53.450;15.496;2023-04-04T08:36:18;100823.28;;;2.22;100.00
25722;BME280;13578;53.450;15.496;2023-04-04T08:39:19;100803.53;;;2.19;97.83
25722;BME280;13578;53.450;15.496;2023-04-04T08:42:20;100806.53;;;2.57;95.72
25722;BME280;13578;53.450;15.496;2023-04-04T08:45:23;100806.84;;;2.94;94.99
25722;BME280;13578;53.450;15.496;2023-04-04T08:48:26;100835.03;;;3.32;100.00
25722;BME280;13578;53.450;15.496;2023-04-04T08:51:30;100854.09;;;3.52;100.00
25722;BME280;13578;53.450;15.496;2023-04-04T08:54:33;100839.50;;;3.13;100.00
25722;BME280;13578;53.450;15.496;2023-04-04T08:57:34;100849.84;;;2.59;100.00
25722;BME280;13578;53.450;15.496;2023-04-04T09:00:36;100855.69;;;2.48;100.00
25722;BME280;13578;53.450;15.496;2023-04-04T09:03:40;100863.31;;;2.60;100.00
25722;BME280;13578;53.450;15.496;2023-04-04T09:06:42;100858.75;;;2.62;100.00
25722;BME280;13578;53.450;15.496;2023-04-04T09:09:46;100831.69;;;2.83;100.00
25722;BME280;13578;53.450;15.496;2023-04-04T09:12:50;100860.50;;;3.08;100.00
25722;BME280;13578;53.450;15.496;2023-04-04T09:15:52;100801.63;;;3.10;97.37
25722;BME280;13578;53.450;15.496;2023-04-04T09:18:56;100752.41;;;2.98;87.53
25722;BME280;13578;53.450;15.496;2023-04-04T09:21:57;100761.22;;;3.04;86.50
25722;BME280;13578;53.450;15.496;2023-04-04T09:24:57;100777.06;;;3.54;89.49
25722;BME280;13578;53.450;15.496;2023-04-04T09:27:58;100787.53;;;3.63;91.84
25722;BME280;13578;53.450;15.496;2023-04-04T09:31:02;100795.78;;;3.81;94.54
25722;BME280;13578;53.450;15.496;2023-04-04T09:34:04;100783.19;;;3.99;92.05
25722;BME280;13578;53.450;15.496;2023-04-04T09:37:05;100761.56;;;3.77;87.38
25722;BME280;13578;53.450;15.496;2023-04-04T09:40:09;100754.03;;;3.23;83.76
25722;BME280;13578;53.450;15.496;2023-04-04T09:43:11;100775.78;;;3.01;88.58
25722;BME280;13578;53.450;15.496;2023-04-04T09:46:11;100790.03;;;3.27;91.23
25722;BME280;13578;53.450;15.496;2023-04-04T09:49:19;100775.06;;;3.59;89.75
25722;BME280;13578;53.450;15.496;2023-04-04T09:52:21;100786.25;;;3.52;90.61
25722;BME280;13578;53.450;15.496;2023-04-04T09:55:33;100762.50;;;3.36;86.93
25722;BME280;13578;53.450;15.496;2023-04-04T09:58:35;100766.91;;;3.39;90.47
25722;BME280;13578;53.450;15.496;2023-04-04T10:01:36;100764.72;;;3.87;88.32
25722;BME280;13578;53.450;15.496;2023-04-04T10:04:37;100768.16;;;4.11;87.94
25722;BME280;13578;53.450;15.496;2023-04-04T10:07:38;100740.44;;;3.84;84.43
25722;BME280;13578;53.450;15.496;2023-04-04T10:11:02;100750.06;;;3.91;86.72
25722;BME280;13578;53.450;15.496;2023-04-04T10:14:03;100779.66;;;3.97;89.02
25722;BME280;13578;53.450;15.496;2023-04-04T10:17:07;100757.78;;;3.81;88.95
25722;BME280;13578;53.450;15.496;2023-04-04T10:20:13;100782.31;;;3.59;93.16
25722;BME280;13578;53.450;15.496;2023-04-04T10:23:15;100769.38;;;3.64;90.97
25722;BME280;13578;53.450;15.496;2023-04-04T10:26:17;100776.41;;;3.49;92.27
25722;BME280;13578;53.450;15.496;2023-04-04T10:29:17;100790.53;;;3.37;94.66
25722;BME280;13578;53.450;15.496;2023-04-04T10:32:26;100789.97;;;3.49;97.10
25722;BME280;13578;53.450;15.496;2023-04-04T10:35:30;100762.22;;;3.82;93.42
25722;BME280;13578;53.450;15.496;2023-04-04T10:38:37;100729.66;;;4.01;87.43
25722;BME280;13578;53.450;15.496;2023-04-04T10:41:40;100710.91;;;4.14;85.91
25722;BME280;13578;53.450;15.496;2023-04-04T10:44:42;100749.16;;;4.28;88.21
25722;BME280;13578;53.450;15.496;2023-04-04T10:47:44;100773.69;;;3.89;94.86
25722;BME280;13578;53.450;15.496;2023-04-04T10:50:45;100794.06;;;3.59;100.00
25722;BME280;13578;53.450;15.496;2023-04-04T10:53:47;100792.78;;;3.47;100.00
25722;BME280;13578;53.450;15.496;2023-04-04T10:56:48;100791.84;;;3.68;100.00
25722;BME280;13578;53.450;15.496;2023-04-04T11:00:00;100801.34;;;3.78;100.00
25722;BME280;13578;53.450;15.496;2023-04-04T11:03:01;100791.59;;;3.93;100.00
25722;BME280;13578;53.450;15.496;2023-04-04T11:06:02;100719.50;;;3.86;92.05
25722;BME280;13578;53.450;15.496;2023-04-04T11:09:13;100735.38;;;3.95;93.48
25722;BME280;13578;53.450;15.496;2023-04-04T11:12:14;100741.75;;;3.94;94.15
25722;BME280;13578;53.450;15.496;2023-04-04T11:15:21;100735.88;;;4.22;95.58
25722;BME280;13578;53.450;15.496;2023-04-04T11:21:42;100738.38;;;4.27;94.49
25722;BME280;13578;53.450;15.496;2023-04-04T11:24:45;100732.22;;;4.04;95.11
25722;BME280;13578;53.450;15.496;2023-04-04T11:27:46;100736.41;;;4.11;95.88
25722;BME280;13578;53.450;15.496;2023-04-04T11:30:47;100747.69;;;4.40;99.33
25722;BME280;13578;53.450;15.496;2023-04-04T11:37:15;100712.56;;;4.36;94.34
25722;BME280;13578;53.450;15.496;2023-04-04T11:40:19;100732.66;;;4.70;96.33
25722;BME280;13578;53.450;15.496;2023-04-04T11:43:22;100708.97;;;4.89;93.99
25722;BME280;13578;53.450;15.496;2023-04-04T11:46:27;100704.72;;;5.19;93.33
25722;BME280;13578;53.450;15.496;2023-04-04T11:49:29;100679.22;;;4.86;90.25
25722;BME280;13578;53.450;15.496;2023-04-04T11:52:33;100668.72;;;4.96;88.90
25722;BME280;13578;53.450;15.496;2023-04-04T11:55:43;100663.03;;;5.18;87.49
25722;BME280;13578;53.450;15.496;2023-04-04T11:58:47;100644.44;;;5.27;83.33
25722;BME280;13578;53.450;15.496;2023-04-04T12:01:48;100633.41;;;5.12;82.52
25722;BME280;13578;53.450;15.496;2023-04-04T12:04:50;100631.47;;;5.48;80.32
25722;BME280;13578;53.450;15.496;2023-04-04T12:07:51;100587.56;;;5.70;71.19
25722;BME280;13578;53.450;15.496;2023-04-04T12:10:52;100573.31;;;5.49;67.82
25722;BME280;13578;53.450;15.496;2023-04-04T12:13:53;100589.16;;;5.58;68.74
25722;BME280;13578;53.450;15.496;2023-04-04T12:16:55;100591.22;;;5.21;70.73
25722;BME280;13578;53.450;15.496;2023-04-04T12:19:56;100605.78;;;5.20;74.29
25722;BME280;13578;53.450;15.496;2023-04-04T12:22:57;100616.41;;;5.24;76.69
25722;BME280;13578;53.450;15.496;2023-04-04T12:25:58;100622.88;;;5.06;76.31
25722;BME280;13578;53.450;15.496;2023-04-04T12:29:01;100620.25;;;4.87;76.30
25722;BME280;13578;53.450;15.496;2023-04-04T12:32:02;100617.97;;;4.61;76.35
25722;BME280;13578;53.450;15.496;2023-04-04T12:35:03;100633.94;;;4.68;79.61
25722;BME280;13578;53.450;15.496;2023-04-04T12:38:05;100645.13;;;4.79;82.09
25722;BME280;13578;53.450;15.496;2023-04-04T12:41:08;100620.19;;;4.53;80.93
25722;BME280;13578;53.450;15.496;2023-04-04T12:47:29;100636.06;;;4.96;84.10
25722;BME280;13578;53.450;15.496;2023-04-04T12:50:30;100620.81;;;5.27;82.67
25722;BME280;13578;53.450;15.496;2023-04-04T12:53:31;100604.84;;;5.37;80.99
25722;BME280;13578;53.450;15.496;2023-04-04T12:56:34;100591.31;;;5.19;77.64
25722;BME280;13578;53.450;15.496;2023-04-04T12:59:35;100613.13;;;5.18;81.22
25722;BME280;13578;53.450;15.496;2023-04-04T13:02:37;100623.66;;;5.08;83.92
25722;BME280;13578;53.450;15.496;2023-04-04T13:05:38;100645.78;;;5.18;90.25
25722;BME280;13578;53.450;15.496;2023-04-04T13:08:52;100624.47;;;5.10;87.12
25722;BME280;13578;53.450;15.496;2023-04-04T13:12:04;100608.72;;;4.99;83.15
25722;BME280;13578;53.450;15.496;2023-04-04T13:15:07;100609.63;;;4.82;83.87
25722;BME280;13578;53.450;15.496;2023-04-04T13:18:35;100581.84;;;4.93;81.27
25722;BME280;13578;53.450;15.496;2023-04-04T13:21:38;100600.22;;;5.05;81.32
25722;BME280;13578;53.450;15.496;2023-04-04T13:24:39;100570.16;;;4.91;77.43
25722;BME280;13578;53.450;15.496;2023-04-04T13:27:39;100559.16;;;4.76;75.97
25722;BME280;13578;53.450;15.496;2023-04-04T13:30:40;100584.03;;;4.69;79.38
25722;BME280;13578;53.450;15.496;2023-04-04T13:33:45;100598.41;;;4.71;82.28
25722;BME280;13578;53.450;15.496;2023-04-04T13:36:46;100600.31;;;4.86;84.19
25722;BME280;13578;53.450;15.496;2023-04-04T13:39:47;100598.66;;;4.84;85.85
25722;BME280;13578;53.450;15.496;2023-04-04T13:42:47;100587.53;;;4.88;83.56
25722;BME280;13578;53.450;15.496;2023-04-04T13:45:49;100593.69;;;5.41;85.58
25722;BME280;13578;53.450;15.496;2023-04-04T13:48:53;100567.53;;;5.39;80.89
25722;BME280;13578;53.450;15.496;2023-04-04T13:51:54;100578.59;;;5.36;82.04
25722;BME280;13578;53.450;15.496;2023-04-04T13:54:55;100568.84;;;5.32;82.34
25722;BME280;13578;53.450;15.496;2023-04-04T13:57:56;100574.38;;;5.30;83.01
25722;BME280;13578;53.450;15.496;2023-04-04T14:00:57;100580.31;;;5.21;84.70
25722;BME280;13578;53.450;15.496;2023-04-04T14:03:58;100560.94;;;4.93;82.32
25722;BME280;13578;53.450;15.496;2023-04-04T14:06:59;100567.69;;;4.86;83.87
25722;BME280;13578;53.450;15.496;2023-04-04T14:09:59;100593.44;;;4.97;87.92
25722;BME280;13578;53.450;15.496;2023-04-04T14:13:00;100609.69;;;5.14;92.95
25722;BME280;13578;53.450;15.496;2023-04-04T14:16:20;100577.56;;;5.54;87.90
25722;BME280;13578;53.450;15.496;2023-04-04T14:19:22;100547.31;;;5.75;82.86
25722;BME280;13578;53.450;15.496;2023-04-04T14:22:23;100548.84;;;5.65;82.95
25722;BME280;13578;53.450;15.496;2023-04-04T14:25:24;100561.66;;;5.79;83.29
25722;BME280;13578;53.450;15.496;2023-04-04T14:28:26;100540.81;;;5.78;81.93
25722;BME280;13578;53.450;15.496;2023-04-04T14:31:26;100508.88;;;5.49;77.37
25722;BME280;13578;53.450;15.496;2023-04-04T14:34:27;100535.66;;;5.41;80.16
25722;BME280;13578;53.450;15.496;2023-04-04T14:37:28;100530.03;;;5.28;78.98
25722;BME280;13578;53.450;15.496;2023-04-04T14:40:29;100521.91;;;5.11;80.03
25722;BME280;13578;53.450;15.496;2023-04-04T14:43:29;100519.19;;;4.95;79.54
25722;BME280;13578;53.450;15.496;2023-04-04T14:46:30;100525.75;;;4.90;79.60
25722;BME280;13578;53.450;15.496;2023-04-04T14:49:31;100502.03;;;4.76;75.13
25722;BME280;13578;53.450;15.496;2023-04-04T14:52:31;100484.06;;;4.74;73.45
25722;BME280;13578;53.450;15.496;2023-04-04T14:55:32;100495.16;;;4.69;73.31
25722;BME280;13578;53.450;15.496;2023-04-04T14:58:33;100504.22;;;4.70;74.72
25722;BME280;13578;53.450;15.496;2023-04-04T15:01:33;100503.88;;;4.76;74.95
25722;BME280;13578;53.450;15.496;2023-04-04T15:04:34;100511.03;;;4.95;76.20
25722;BME280;13578;53.450;15.496;2023-04-04T15:07:35;100495.66;;;4.93;73.40
25722;BME280;13578;53.450;15.496;2023-04-04T15:10:35;100494.00;;;5.07;73.85
25722;BME280;13578;53.450;15.496;2023-04-04T15:13:36;100498.25;;;5.45;74.67
25722;BME280;13578;53.450;15.496;2023-04-04T15:16:37;100468.47;;;5.41;71.66
25722;BME280;13578;53.450;15.496;2023-04-04T15:19:37;100491.97;;;5.59;73.29
25722;BME280;13578;53.450;15.496;2023-04-04T15:22:38;100473.63;;;5.62;71.02
25722;BME280;13578;53.450;15.496;2023-04-04T15:25:40;100485.41;;;5.63;71.55
25722;BME280;13578;53.450;15.496;2023-04-04T15:28:41;100464.84;;;5.57;71.74
25722;BME280;13578;53.450;15.496;2023-04-04T15:31:41;100480.19;;;5.74;74.08
25722;BME280;13578;53.450;15.496;2023-04-04T15:34:42;100472.06;;;5.58;70.70
25722;BME280;13578;53.450;15.496;2023-04-04T15:37:43;100462.06;;;5.27;69.93
25722;BME280;13578;53.450;15.496;2023-04-04T15:40:43;100474.69;;;5.12;69.94
25722;BME280;13578;53.450;15.496;2023-04-04T15:43:44;100461.59;;;4.86;69.30
25722;BME280;13578;53.450;15.496;2023-04-04T15:46:46;100466.88;;;4.89;70.63
25722;BME280;13578;53.450;15.496;2023-04-04T15:49:46;100459.13;;;4.82;68.90